Time;durP1;ratioP1;P1;durP2;ratioP2;P2;SDS_P1;SDS_P2;PMS_P1;PMS_P2;Temp;Humidity;BMP_temperature;BMP_pressure;BME280_temperature;BME280_humidity;BME280_pressure;Samples;Min_cycle;Max_cycle;Signal;HPM_P1;HPM_P2
2021/10/05 00:00:08;;;;;;;22.37;18.73;;;12.30;99.90;;;;;;5127509;28;20437;-64
2021/10/05 00:02:35;;;;;;;23.77;19.03;;;12.30;99.90;;;;;;5127134;28;20487;-64
2021/10/05 00:05:02;;;;;;;23.20;20.13;;;12.40;99.90;;;;;;5127182;28;20653;-64
2021/10/05 00:07:28;;;;;;;20.00;17.00;;;12.40;99.90;;;;;;5127310;28;20918;-64
2021/10/05 00:09:56;;;;;;;21.57;16.77;;;12.50;99.90;;;;;;5127055;28;20874;-65
2021/10/05 00:12:23;;;;;;;19.90;17.80;;;12.50;99.90;;;;;;5126303;28;20528;-65
2021/10/05 00:14:50;;;;;;;20.17;17.33;;;12.50;99.90;;;;;;5126658;28;20935;-65
2021/10/05 00:17:19;;;;;;;19.37;15.93;;;12.50;99.90;;;;;;5127431;28;20451;-64
2021/10/05 00:19:46;;;;;;;22.20;18.43;;;12.50;99.90;;;;;;5125363;28;20463;-64
2021/10/05 00:22:14;;;;;;;23.90;18.60;;;12.50;99.90;;;;;;5112321;28;20449;-66
2021/10/05 00:24:41;;;;;;;21.40;17.30;;;12.40;99.90;;;;;;5112888;28;20449;-65
2021/10/05 00:27:08;;;;;;;18.50;16.33;;;12.40;99.90;;;;;;5113099;28;21074;-64
2021/10/05 00:29:34;;;;;;;20.90;18.30;;;12.30;99.90;;;;;;5113219;28;20476;-64
2021/10/05 00:32:03;;;;;;;20.90;17.67;;;12.40;99.90;;;;;;5110874;28;20437;-64
2021/10/05 00:34:32;;;;;;;21.93;19.60;;;12.40;99.90;;;;;;5112575;28;21017;-65
2021/10/05 00:36:59;;;;;;;26.23;19.73;;;12.50;99.90;;;;;;5113316;28;20456;-65
2021/10/05 00:39:26;;;;;;;23.13;18.67;;;12.50;99.90;;;;;;5113054;28;20444;-64
2021/10/05 00:41:53;;;;;;;22.40;18.60;;;12.50;99.90;;;;;;5112251;28;20449;-64
2021/10/05 00:44:29;;;;;;;25.67;20.90;;;12.50;99.90;;;;;;5112462;28;20441;-64
2021/10/05 00:47:00;;;;;;;25.87;20.43;;;12.40;99.90;;;;;;5112913;28;20528;-64
2021/10/05 00:49:26;;;;;;;26.90;20.90;;;12.30;99.90;;;;;;5112795;28;20487;-64
2021/10/05 00:51:55;;;;;;;25.13;19.20;;;12.40;99.90;;;;;;5112098;28;21261;-64
2021/10/05 00:54:23;;;;;;;24.10;20.03;;;12.40;99.90;;;;;;5112423;28;20460;-65
2021/10/05 00:56:50;;;;;;;26.30;20.60;;;12.40;99.90;;;;;;5112852;28;20452;-64
2021/10/05 00:59:17;;;;;;;27.83;20.60;;;12.40;99.90;;;;;;5112685;28;20552;-64
2021/10/05 01:01:44;;;;;;;26.70;19.97;;;12.30;99.90;;;;;;5111951;28;20449;-64
2021/10/05 01:04:11;;;;;;;27.80;20.30;;;12.30;99.90;;;;;;5111839;28;20449;-64
2021/10/05 01:06:46;;;;;;;21.83;18.47;;;12.30;99.90;;;;;;5112411;28;20446;-64
2021/10/05 01:09:14;;;;;;;32.37;20.90;;;12.30;99.90;;;;;;5112316;28;20870;-64
2021/10/05 01:11:41;;;;;;;27.90;20.20;;;12.30;99.90;;;;;;5111564;28;20581;-64
2021/10/05 01:14:08;;;;;;;30.80;23.03;;;12.30;99.90;;;;;;5112247;28;20548;-65
2021/10/05 01:16:35;;;;;;;32.13;24.97;;;12.20;99.90;;;;;;5112411;28;20484;-64
2021/10/05 01:19:02;;;;;;;35.90;23.87;;;12.20;99.90;;;;;;5112302;28;20844;-64
2021/10/05 01:21:30;;;;;;;30.27;24.00;;;12.10;99.90;;;;;;5111447;28;20540;-64
2021/10/05 01:24:05;;;;;;;33.50;23.83;;;12.10;99.90;;;;;;5111481;28;20488;-66
2021/10/05 01:26:32;;;;;;;36.97;25.17;;;12.10;99.90;;;;;;5111687;28;20453;-64
2021/10/05 01:29:02;;;;;;;36.77;25.03;;;12.10;99.90;;;;;;5112138;28;20548;-64
2021/10/05 01:31:29;;;;;;;32.87;24.03;;;12.10;99.90;;;;;;5110823;28;20556;-64
2021/10/05 01:33:57;;;;;;;33.83;24.00;;;12.20;99.90;;;;;;5111344;28;20441;-64
2021/10/05 01:36:24;;;;;;;34.33;23.50;;;12.20;99.90;;;;;;5111922;28;21026;-64
2021/10/05 01:38:52;;;;;;;33.70;24.73;;;12.10;99.90;;;;;;5111680;28;20473;-64
2021/10/05 01:41:19;;;;;;;30.90;22.53;;;12.20;99.90;;;;;;5111382;28;20449;-65
2021/10/05 01:43:46;;;;;;;43.10;26.10;;;12.20;99.90;;;;;;5110937;28;20444;-65
2021/10/05 01:46:14;;;;;;;39.50;27.80;;;12.20;99.90;;;;;;5111635;28;20539;-65
2021/10/05 01:48:42;;;;;;;35.53;25.40;;;12.20;99.90;;;;;;5111429;28;20465;-65
2021/10/05 01:51:09;;;;;;;33.03;23.73;;;12.10;99.90;;;;;;5111872;28;20553;-65
2021/10/05 01:53:36;;;;;;;41.07;27.77;;;12.10;99.90;;;;;;5110800;28;20447;-64
2021/10/05 01:56:06;;;;;;;38.63;28.30;;;12.10;99.90;;;;;;5112000;28;20441;-65
2021/10/05 01:58:33;;;;;;;39.27;24.83;;;12.10;99.90;;;;;;5111552;28;20995;-65
2021/10/05 02:01:01;;;;;;;35.93;23.87;;;12.10;99.90;;;;;;5111731;28;20441;-65
2021/10/05 02:03:28;;;;;;;34.00;23.40;;;12.20;99.90;;;;;;5110348;28;20449;-64
2021/10/05 02:05:55;;;;;;;31.30;22.03;;;12.20;99.90;;;;;;5111350;28;20520;-64
2021/10/05 02:08:21;;;;;;;32.90;24.00;;;12.30;99.90;;;;;;5111365;28;20566;-65
2021/10/05 02:10:48;;;;;;;30.10;23.50;;;12.30;99.90;;;;;;5111472;28;20481;-65
2021/10/05 02:13:16;;;;;;;35.37;22.73;;;12.30;99.90;;;;;;5109958;28;20445;-65
2021/10/05 02:15:44;;;;;;;33.03;23.07;;;12.30;99.90;;;;;;5111005;28;20451;-64
2021/10/05 02:18:11;;;;;;;32.60;22.73;;;12.30;99.90;;;;;;5110794;28;20472;-64
2021/10/05 02:20:37;;;;;;;31.57;23.30;;;12.30;99.90;;;;;;5110558;28;20532;-64
2021/10/05 02:23:04;;;;;;;34.23;24.30;;;12.30;99.90;;;;;;5109992;28;20445;-64
2021/10/05 02:25:30;;;;;;;32.83;24.10;;;12.30;99.90;;;;;;5110808;28;21011;-65
2021/10/05 02:27:57;;;;;;;33.27;24.13;;;12.30;99.90;;;;;;5110674;28;20545;-65
2021/10/05 02:30:25;;;;;;;33.03;24.27;;;12.20;99.90;;;;;;5110932;28;20215;-65
2021/10/05 02:32:52;;;;;;;34.97;23.47;;;12.20;99.90;;;;;;5109473;28;20453;-64
2021/10/05 02:35:19;;;;;;;118.93;36.80;;;12.20;99.90;;;;;;5111207;28;20532;-64
2021/10/05 02:37:46;;;;;;;56.47;28.93;;;12.20;99.90;;;;;;5111000;28;20457;-64
2021/10/05 02:40:13;;;;;;;45.87;27.20;;;12.20;99.90;;;;;;5111105;28;20817;-65
2021/10/05 02:42:40;;;;;;;36.67;24.67;;;12.30;99.90;;;;;;5109919;28;20444;-64
2021/10/05 02:45:09;;;;;;;39.40;25.70;;;12.30;99.90;;;;;;5110538;28;20457;-64
2021/10/05 02:47:37;;;;;;;35.70;24.57;;;12.30;99.90;;;;;;5110518;28;20978;-65
2021/10/05 02:50:04;;;;;;;35.10;25.00;;;12.20;99.90;;;;;;5110658;28;20484;-66
2021/10/05 02:52:31;;;;;;;34.27;23.77;;;12.20;99.90;;;;;;5109733;28;20441;-64
2021/10/05 02:54:58;;;;;;;36.73;24.37;;;12.20;99.90;;;;;;5110162;28;20441;-64
2021/10/05 02:57:25;;;;;;;35.47;23.47;;;12.10;99.90;;;;;;5110247;28;20504;-65
2021/10/05 02:59:52;;;;;;;36.47;24.90;;;12.20;99.90;;;;;;5110574;28;20938;-65
2021/10/05 03:02:19;;;;;;;35.20;25.40;;;12.20;99.90;;;;;;5109551;28;20445;-66
2021/10/05 03:04:47;;;;;;;42.77;27.40;;;12.20;99.90;;;;;;5109872;28;20451;-64
2021/10/05 03:07:14;;;;;;;39.37;26.80;;;12.20;99.90;;;;;;5096179;28;20446;-65
2021/10/05 03:09:42;;;;;;;37.20;27.27;;;12.20;99.90;;;;;;5121666;28;20540;-65
2021/10/05 03:12:09;;;;;;;38.77;27.07;;;12.20;99.90;;;;;;5096135;28;20580;-65
2021/10/05 03:14:36;;;;;;;38.30;27.20;;;12.20;99.90;;;;;;5116747;28;20474;-65
2021/10/05 03:17:03;;;;;;;36.57;26.07;;;12.20;99.90;;;;;;5089529;28;20454;-65
2021/10/05 03:19:30;;;;;;;167.93;40.70;;;12.20;99.90;;;;;;5089773;28;20453;-65
2021/10/05 03:21:59;;;;;;;41.17;24.00;;;12.30;99.90;;;;;;5089263;28;20514;-65
2021/10/05 03:24:26;;;;;;;35.43;23.43;;;12.30;99.90;;;;;;5089669;28;20529;-65
2021/10/05 03:26:53;;;;;;;35.33;21.83;;;12.40;99.90;;;;;;5090050;28;20460;-65
2021/10/05 03:29:19;;;;;;;38.33;24.40;;;12.40;99.90;;;;;;5089743;28;20470;-65
2021/10/05 03:31:46;;;;;;;34.93;24.33;;;12.40;99.90;;;;;;5089288;28;20820;-65
2021/10/05 03:34:13;;;;;;;34.40;24.60;;;12.40;99.90;;;;;;5089657;28;20446;-65
2021/10/05 03:36:40;;;;;;;40.80;26.53;;;12.40;99.90;;;;;;5089964;28;20950;-65
2021/10/05 03:39:09;;;;;;;34.83;25.27;;;12.40;99.90;;;;;;5089944;28;20915;-64
2021/10/05 03:41:35;;;;;;;34.77;23.83;;;12.30;99.90;;;;;;5089459;28;20444;-65
2021/10/05 03:44:03;;;;;;;63.10;31.40;;;12.30;99.90;;;;;;5089429;28;20481;-65
2021/10/05 03:46:30;;;;;;;38.30;24.90;;;12.30;99.90;;;;;;5090522;28;20792;-64
2021/10/05 03:48:57;;;;;;;42.33;25.30;;;12.30;99.90;;;;;;5090033;28;20469;-66
2021/10/05 03:51:24;;;;;;;202.07;43.13;;;12.40;99.90;;;;;;5089261;28;20510;-64
2021/10/05 03:53:50;;;;;;;75.43;31.90;;;12.40;99.90;;;;;;5089150;28;20442;-64
2021/10/05 03:56:19;;;;;;;96.27;36.00;;;12.40;99.90;;;;;;5091782;28;20536;-65
2021/10/05 03:58:46;;;;;;;42.33;26.63;;;12.50;99.90;;;;;;5093335;28;20553;-65
2021/10/05 04:01:13;;;;;;;41.20;28.47;;;12.50;99.90;;;;;;5093316;28;20846;-64
2021/10/05 04:03:41;;;;;;;35.73;25.10;;;12.50;99.90;;;;;;5092387;28;20454;-66
2021/10/05 04:06:08;;;;;;;38.40;26.10;;;12.50;99.90;;;;;;5093400;28;20446;-66
2021/10/05 04:08:35;;;;;;;36.77;25.33;;;12.40;99.90;;;;;;5093704;28;21010;-66
2021/10/05 04:11:02;;;;;;;32.77;23.33;;;12.50;99.90;;;;;;5093032;28;21061;-63
2021/10/05 04:13:30;;;;;;;34.17;23.47;;;12.40;99.90;;;;;;5091455;28;20943;-63
2021/10/05 04:15:57;;;;;;;35.83;22.20;;;12.40;99.90;;;;;;5093229;28;20986;-63
2021/10/05 04:18:24;;;;;;;55.20;27.37;;;12.30;99.90;;;;;;5094395;28;20462;-63
2021/10/05 04:20:52;;;;;;;32.80;22.53;;;12.30;99.90;;;;;;5095073;28;20962;-63
2021/10/05 04:23:19;;;;;;;31.50;20.93;;;12.30;99.90;;;;;;5093020;28;20457;-63
2021/10/05 04:25:45;;;;;;;35.53;21.63;;;12.40;99.90;;;;;;5094440;28;20471;-63
2021/10/05 04:28:12;;;;;;;32.13;21.97;;;12.40;99.90;;;;;;5094500;28;20462;-63
2021/10/05 04:30:42;;;;;;;30.80;20.20;;;12.40;99.90;;;;;;5093795;28;20494;-63
2021/10/05 04:33:09;;;;;;;28.50;20.57;;;12.40;99.90;;;;;;5092419;28;20450;-62
2021/10/05 04:35:36;;;;;;;32.33;21.53;;;12.50;99.90;;;;;;5093691;28;20446;-63
2021/10/05 04:38:03;;;;;;;29.03;20.63;;;12.40;99.90;;;;;;5093469;28;20493;-66
2021/10/05 04:40:31;;;;;;;31.60;22.40;;;12.40;99.90;;;;;;5093303;28;20443;-63
2021/10/05 04:42:57;;;;;;;29.13;19.67;;;12.40;99.90;;;;;;5092139;28;20460;-62
2021/10/05 04:45:24;;;;;;;29.33;20.10;;;12.30;99.90;;;;;;5093241;28;20897;-62
2021/10/05 04:47:53;;;;;;;30.97;20.87;;;12.30;99.90;;;;;;5093484;28;20549;-64
2021/10/05 04:50:19;;;;;;;33.23;22.23;;;12.30;99.90;;;;;;5093010;28;20504;-63
2021/10/05 04:52:46;;;;;;;36.93;22.30;;;12.20;99.90;;;;;;5091291;28;20536;-66
2021/10/05 04:55:13;;;;;;;31.83;22.13;;;12.10;99.90;;;;;;5092557;28;20577;-63
2021/10/05 04:57:40;;;;;;;33.27;20.60;;;12.20;99.90;;;;;;5092561;28;20462;-64
2021/10/05 05:00:09;;;;;;;31.70;22.63;;;12.20;99.90;;;;;;5104495;28;20847;-64
2021/10/05 05:02:36;;;;;;;29.00;20.00;;;12.20;99.90;;;;;;5108035;28;20441;-64
2021/10/05 05:05:05;;;;;;;65.13;26.20;;;12.10;99.90;;;;;;5101930;28;20519;-64
2021/10/05 05:07:33;;;;;;;31.67;21.43;;;12.10;99.90;;;;;;5106327;28;20461;-64
2021/10/05 05:10:02;;;;;;;35.60;21.70;;;12.20;99.90;;;;;;5111877;28;20445;-65
2021/10/05 05:12:29;;;;;;;30.80;20.07;;;12.30;99.90;;;;;;5107805;28;20988;-64
2021/10/05 05:14:56;;;;;;;34.97;24.67;;;12.30;99.90;;;;;;5110421;28;20927;-65
2021/10/05 05:17:23;;;;;;;30.50;21.40;;;12.30;99.90;;;;;;5111128;28;20472;-66
2021/10/05 05:19:50;;;;;;;28.47;19.77;;;12.30;99.90;;;;;;5111203;28;20575;-65
2021/10/05 05:22:18;;;;;;;29.50;20.93;;;12.20;99.90;;;;;;5111147;28;20838;-65
2021/10/05 05:24:45;;;;;;;28.30;19.97;;;12.20;99.90;;;;;;5110962;28;20485;-64
2021/10/05 05:27:12;;;;;;;34.97;20.50;;;12.20;99.90;;;;;;5111630;28;20855;-65
2021/10/05 05:29:38;;;;;;;32.90;20.83;;;12.10;99.90;;;;;;5116064;27;20441;-66
2021/10/05 05:32:06;;;;;;;47.13;21.10;;;12.10;99.90;;;;;;5104797;27;20473;-65
2021/10/05 05:34:33;;;;;;;38.83;20.27;;;12.10;99.90;;;;;;5109498;28;20536;-65
2021/10/05 05:37:00;;;;;;;113.73;30.83;;;12.20;99.90;;;;;;5111288;28;20448;-65
2021/10/05 05:39:28;;;;;;;35.47;21.40;;;12.30;99.90;;;;;;5110342;28;20446;-65
2021/10/05 05:41:55;;;;;;;32.97;20.83;;;12.30;99.90;;;;;;5110707;28;20525;-65
2021/10/05 05:44:22;;;;;;;41.50;22.03;;;12.40;99.90;;;;;;5110880;28;20452;-65
2021/10/05 05:46:48;;;;;;;29.10;20.27;;;12.40;99.90;;;;;;5111334;28;20532;-65
2021/10/05 05:49:15;;;;;;;142.63;35.13;;;12.40;99.90;;;;;;5111423;28;20465;-70
2021/10/05 05:51:42;;;;;;;158.37;35.00;;;12.40;99.90;;;;;;5110262;28;20481;-65
2021/10/05 05:54:09;;;;;;;39.30;22.00;;;12.40;99.90;;;;;;5110740;28;20451;-65
2021/10/05 05:56:38;;;;;;;35.10;21.37;;;12.40;99.90;;;;;;5111325;28;20871;-65
2021/10/05 05:59:05;;;;;;;27.07;18.70;;;12.40;99.90;;;;;;5110921;28;20473;-65
2021/10/05 06:01:32;;;;;;;31.47;20.40;;;12.50;99.90;;;;;;5110249;28;20445;-65
2021/10/05 06:04:00;;;;;;;30.93;20.97;;;12.40;99.90;;;;;;5110846;28;20448;-65
2021/10/05 06:06:29;;;;;;;26.57;19.63;;;12.40;99.90;;;;;;5111108;28;20535;-65
2021/10/05 06:08:56;;;;;;;29.40;19.83;;;12.40;99.90;;;;;;5110917;28;20484;-65
2021/10/05 06:11:23;;;;;;;27.70;18.63;;;12.50;99.90;;;;;;5110524;28;20927;-65
2021/10/05 06:13:51;;;;;;;30.70;18.37;;;12.50;99.90;;;;;;5110090;28;20456;-65
2021/10/05 06:16:19;;;;;;;36.10;20.07;;;12.50;99.90;;;;;;5110960;28;20480;-65
2021/10/05 06:18:46;;;;;;;59.00;23.43;;;12.50;99.90;;;;;;5110162;28;20542;-65
2021/10/05 06:21:13;;;;;;;35.93;20.33;;;12.50;99.90;;;;;;5110862;28;20464;-65
2021/10/05 06:23:40;;;;;;;33.50;19.23;;;12.60;99.90;;;;;;5109671;28;20444;-65
2021/10/05 06:26:08;;;;;;;56.03;21.27;;;12.70;99.90;;;;;;5110627;28;20537;-65
2021/10/05 06:28:35;;;;;;;27.40;19.27;;;12.70;99.90;;;;;;5110499;28;20469;-65
2021/10/05 06:31:04;;;;;;;27.93;17.53;;;12.80;99.90;;;;;;5110686;28;20483;-66
2021/10/05 06:33:31;;;;;;;29.50;17.50;;;12.80;99.90;;;;;;5109527;28;20840;-65
2021/10/05 06:35:58;;;;;;;53.93;21.03;;;12.90;99.90;;;;;;5110472;28;20910;-66
2021/10/05 06:38:25;;;;;;;28.57;17.73;;;13.00;99.90;;;;;;5110308;28;20504;-65
2021/10/05 06:40:53;;;;;;;26.17;20.33;;;13.10;99.90;;;;;;5110196;28;20528;-65
2021/10/05 06:43:20;;;;;;;26.33;17.20;;;13.30;99.90;;;;;;5109295;28;20496;-66
2021/10/05 06:45:47;;;;;;;21.50;16.33;;;13.40;99.90;;;;;;5110565;28;20449;-66
2021/10/05 06:48:16;;;;;;;24.57;17.80;;;13.40;99.90;;;;;;5110550;28;20552;-66
2021/10/05 06:50:43;;;;;;;23.93;17.50;;;13.50;99.90;;;;;;5110243;28;21131;-66
2021/10/05 06:53:15;;;;;;;20.83;16.20;;;13.50;99.90;;;;;;5109362;28;20445;-66
2021/10/05 06:55:42;;;;;;;21.37;16.47;;;13.50;99.90;;;;;;5110186;28;21015;-66
2021/10/05 06:58:09;;;;;;;21.40;15.83;;;13.40;99.90;;;;;;5110246;28;20540;-66
2021/10/05 07:00:36;;;;;;;24.30;17.10;;;13.40;99.90;;;;;;5110058;28;20453;-66
2021/10/05 07:03:03;;;;;;;21.73;17.07;;;13.50;99.90;;;;;;5108924;28;20450;-66
2021/10/05 07:05:32;;;;;;;21.27;15.73;;;13.40;99.90;;;;;;5110261;28;20532;-66
2021/10/05 07:07:59;;;;;;;21.20;16.73;;;13.40;99.90;;;;;;5109975;28;20576;-66
2021/10/05 07:10:26;;;;;;;23.20;16.43;;;13.40;99.90;;;;;;5110236;28;20445;-66
2021/10/05 07:12:54;;;;;;;20.90;15.00;;;13.50;99.90;;;;;;5108666;28;20489;-66
2021/10/05 07:15:21;;;;;;;20.93;16.83;;;13.50;99.90;;;;;;5110104;28;20532;-66
2021/10/05 07:17:52;;;;;;;19.63;15.73;;;13.60;99.90;;;;;;5110015;28;20460;-66
2021/10/05 07:20:19;;;;;;;21.67;15.27;;;13.60;99.90;;;;;;5110011;28;20444;-66
2021/10/05 07:22:48;;;;;;;26.97;18.17;;;13.70;99.90;;;;;;5108657;28;20448;-66
2021/10/05 07:25:17;;;;;;;20.30;16.10;;;13.70;99.90;;;;;;5109802;28;20943;-66
2021/10/05 07:27:50;;;;;;;20.90;16.00;;;13.80;99.90;;;;;;5109795;28;21206;-66
2021/10/05 07:30:22;;;;;;;23.90;17.63;;;13.90;99.90;;;;;;5110648;28;20454;-66
2021/10/05 07:32:50;;;;;;;22.53;17.87;;;14.00;99.90;;;;;;5112875;28;20484;-66
2021/10/05 07:35:18;;;;;;;21.37;16.87;;;14.10;99.90;;;;;;5113861;28;21151;-67
2021/10/05 07:37:45;;;;;;;23.73;15.60;;;14.30;99.90;;;;;;5114020;28;20559;-66
2021/10/05 07:40:15;;;;;;;19.77;15.90;;;14.50;99.90;;;;;;5114047;28;20544;-67
2021/10/05 07:42:42;;;;;;;22.03;16.33;;;14.60;99.90;;;;;;5113244;28;20556;-66
2021/10/05 07:45:10;;;;;;;16.50;12.90;;;14.70;99.90;;;;;;5113761;28;20962;-66
2021/10/05 07:47:37;;;;;;;17.27;14.30;;;14.60;99.90;;;;;;5113707;28;20465;-66
2021/10/05 07:50:04;;;;;;;18.17;14.97;;;14.60;99.90;;;;;;5114164;28;20441;-66
2021/10/05 07:52:31;;;;;;;20.27;15.83;;;14.60;99.90;;;;;;5113021;28;20476;-66
2021/10/05 07:54:58;;;;;;;18.13;15.37;;;14.50;99.90;;;;;;5113377;28;20441;-66
2021/10/05 07:57:26;;;;;;;18.60;14.50;;;14.60;99.90;;;;;;5113636;28;20886;-66
2021/10/05 07:59:53;;;;;;;17.50;14.40;;;14.60;99.90;;;;;;5113522;28;20448;-66
2021/10/05 08:02:20;;;;;;;21.00;16.65;;;14.70;99.90;;;;;;5111678;28;20454;-66
2021/10/05 08:04:47;;;;;;;16.80;14.17;;;14.80;99.90;;;;;;5112969;28;20294;-67
2021/10/05 08:07:14;;;;;;;17.93;14.17;;;14.90;99.90;;;;;;5113592;28;20484;-64
2021/10/05 08:09:41;;;;;;;14.50;11.87;;;15.20;99.90;;;;;;5113256;28;20532;-65
2021/10/05 08:12:08;;;;;;;14.10;12.57;;;15.40;99.90;;;;;;5112437;28;20483;-65
2021/10/05 08:14:39;;;;;;;15.30;11.97;;;15.60;99.90;;;;;;5113016;28;20451;-64
2021/10/05 08:17:06;;;;;;;14.70;12.87;;;15.80;99.90;;;;;;5113090;28;20452;-65
2021/10/05 08:19:33;;;;;;;14.80;12.30;;;15.90;99.90;;;;;;5113105;28;20445;-65
2021/10/05 08:22:00;;;;;;;12.53;10.87;;;15.80;99.90;;;;;;5112942;28;20445;-65
2021/10/05 08:24:27;;;;;;;13.73;11.50;;;15.80;99.90;;;;;;5113342;28;20445;-66
2021/10/05 08:26:54;;;;;;;14.40;11.80;;;15.90;99.90;;;;;;5113242;28;20536;-66
2021/10/05 08:29:21;;;;;;;15.30;12.00;;;16.00;99.90;;;;;;5112846;28;20559;-66
2021/10/05 08:31:50;;;;;;;13.40;11.00;;;16.10;99.90;;;;;;5112462;28;20571;-66
2021/10/05 08:34:18;;;;;;;14.57;11.70;;;16.40;99.90;;;;;;5112851;28;20443;-66
2021/10/05 08:36:46;;;;;;;14.47;11.10;;;16.50;99.90;;;;;;5113139;28;20449;-66
2021/10/05 08:39:16;;;;;;;10.90;9.30;;;16.70;99.90;;;;;;5112921;28;20476;-66
2021/10/05 08:41:45;;;;;;;10.23;8.80;;;16.60;99.90;;;;;;5111786;28;20452;-66
2021/10/05 08:44:12;;;;;;;10.63;9.53;;;16.60;99.90;;;;;;5112660;28;20453;-66
2021/10/05 08:46:40;;;;;;;11.97;9.67;;;16.70;99.90;;;;;;5113271;28;20453;-66
2021/10/05 08:49:10;;;;;;;12.00;10.20;;;16.80;99.90;;;;;;5112926;28;20552;-66
2021/10/05 08:51:38;;;;;;;10.20;9.10;;;16.90;99.90;;;;;;5112145;28;20896;-66
2021/10/05 08:54:05;;;;;;;10.80;9.70;;;16.70;99.90;;;;;;5112349;28;20544;-66
2021/10/05 08:56:32;;;;;;;12.60;10.10;;;16.70;99.90;;;;;;5112669;28;20537;-66
2021/10/05 08:58:59;;;;;;;11.80;10.43;;;16.70;99.90;;;;;;5112468;28;20500;-66
2021/10/05 09:01:32;;;;;;;11.80;9.97;;;17.00;99.90;;;;;;5111943;28;20552;-66
2021/10/05 09:03:59;;;;;;;11.07;9.80;;;17.10;99.90;;;;;;5112040;28;20478;-66
2021/10/05 09:06:27;;;;;;;10.23;9.13;;;17.30;99.90;;;;;;5112376;28;20798;-66
2021/10/05 09:08:55;;;;;;;15.97;11.87;;;17.30;99.90;;;;;;5112009;28;20575;-66
2021/10/05 09:11:24;;;;;;;13.07;11.67;;;17.50;99.90;;;;;;5111654;28;20457;-66
2021/10/05 09:13:54;;;;;;;11.97;10.53;;;17.60;99.90;;;;;;5112170;28;20457;-66
2021/10/05 09:16:23;;;;;;;11.33;10.10;;;17.60;99.90;;;;;;5112484;28;20488;-66
2021/10/05 09:18:58;;;;;;;12.00;10.27;;;17.40;99.90;;;;;;5112353;28;20469;-67
2021/10/05 09:21:28;;;;;;;10.50;9.40;;;17.10;99.90;;;;;;5111919;28;20543;-65
2021/10/05 09:23:57;;;;;;;11.73;10.00;;;16.80;99.90;;;;;;5112536;28;20445;-66
2021/10/05 09:26:36;;;;;;;11.20;9.30;;;16.90;99.90;;;;;;5113007;28;20453;-66
2021/10/05 09:29:18;;;;;;;10.47;8.37;;;16.80;99.90;;;;;;5112663;28;20556;-67
2021/10/05 09:32:02;;;;;;;7.83;6.57;;;16.60;99.90;;;;;;5111677;28;20481;-66
2021/10/05 09:34:42;;;;;;;9.97;6.80;;;16.40;99.90;;;;;;5112278;28;20536;-67
2021/10/05 09:37:15;;;;;;;9.90;7.00;;;16.20;99.90;;;;;;5112480;28;20939;-67
2021/10/05 09:39:45;;;;;;;7.57;5.70;;;16.00;99.90;;;;;;5112548;28;20467;-66
2021/10/05 09:42:19;;;;;;;7.63;5.50;;;15.90;99.90;;;;;;5111029;28;20861;-65
2021/10/05 09:44:54;;;;;;;7.57;5.83;;;16.20;99.90;;;;;;5111992;28;20445;-66
2021/10/05 09:47:31;;;;;;;5.60;4.97;;;16.60;99.90;;;;;;5112174;28;20524;-66
2021/10/05 09:49:58;;;;;;;7.90;4.60;;;16.90;99.90;;;;;;5112135;28;20455;-67
2021/10/05 09:52:38;;;;;;;5.27;4.70;;;17.10;99.90;;;;;;5110728;28;20990;-67
2021/10/05 09:55:06;;;;;;;5.27;4.23;;;17.30;99.90;;;;;;5111432;28;21029;-67
2021/10/05 09:57:33;;;;;;;4.77;4.00;;;17.60;99.90;;;;;;5112035;28;21232;-67
2021/10/05 10:00:00;;;;;;;6.10;4.60;;;18.00;99.90;;;;;;5111883;28;20548;-67
2021/10/05 10:02:27;;;;;;;5.13;3.90;;;18.20;99.90;;;;;;5110698;28;20522;-68
2021/10/05 10:04:56;;;;;;;5.00;4.50;;;18.00;99.90;;;;;;5111377;28;20523;-66
2021/10/05 10:07:23;;;;;;;4.83;4.20;;;17.90;99.90;;;;;;5111525;28;20458;-66
2021/10/05 10:09:52;;;;;;;5.10;3.90;;;17.90;99.90;;;;;;5112003;28;20552;-67
2021/10/05 10:12:19;;;;;;;5.97;4.03;;;18.10;99.90;;;;;;5111029;28;20564;-67
2021/10/05 10:14:49;;;;;;;5.47;4.27;;;18.40;99.90;;;;;;5111474;28;20453;-68
2021/10/05 10:17:23;;;;;;;4.93;3.90;;;18.50;99.90;;;;;;5111659;28;20467;-67
2021/10/05 10:19:51;;;;;;;6.30;3.60;;;18.60;99.90;;;;;;5111370;28;20453;-66
2021/10/05 10:22:18;;;;;;;4.87;3.30;;;18.70;99.90;;;;;;5110625;28;20441;-68
2021/10/05 10:24:47;;;;;;;5.20;3.90;;;18.80;99.90;;;;;;5111453;28;20449;-67
2021/10/05 10:27:16;;;;;;;4.10;3.30;;;18.70;99.90;;;;;;5111342;28;20453;-67
2021/10/05 10:29:43;;;;;;;5.07;3.60;;;18.60;99.90;;;;;;5111217;28;20483;-66
2021/10/05 10:32:18;;;;;;;5.93;3.27;;;18.70;99.90;;;;;;5109961;28;20472;-66
2021/10/05 10:34:46;;;;;;;4.17;3.50;;;18.80;99.90;;;;;;5110961;28;20910;-66
2021/10/05 10:37:16;;;;;;;4.73;3.47;;;18.60;99.90;;;;;;5111389;28;20521;-67
2021/10/05 10:39:44;;;;;;;3.87;3.03;;;18.70;99.90;;;;;;5111426;28;20475;-67
2021/10/05 10:42:11;;;;;;;4.50;3.10;;;18.60;99.90;;;;;;5110643;28;20540;-66
2021/10/05 10:44:41;;;;;;;4.03;3.17;;;18.70;99.90;;;;;;5110894;28;20536;-68
2021/10/05 10:47:14;;;;;;;3.50;2.77;;;18.80;99.90;;;;;;5110919;28;20449;-68
2021/10/05 10:49:53;;;;;;;4.00;3.13;;;18.50;99.90;;;;;;5111280;28;20453;-67
2021/10/05 10:52:24;;;;;;;3.67;3.00;;;18.20;99.90;;;;;;5110562;28;20488;-67
2021/10/05 10:54:55;;;;;;;3.63;2.63;;;17.80;99.90;;;;;;5110906;28;20441;-67
2021/10/05 10:57:33;;;;;;;3.50;2.90;;;17.80;99.90;;;;;;5110869;28;20900;-66
2021/10/05 11:00:12;;;;;;;3.00;2.20;;;17.70;99.90;;;;;;5110851;28;20460;-67
2021/10/05 11:02:43;;;;;;;4.57;3.20;;;17.70;99.90;;;;;;5110188;28;20440;-67
2021/10/05 11:05:10;;;;;;;4.40;3.03;;;17.70;99.90;;;;;;5110488;28;20444;-66
2021/10/05 11:07:37;;;;;;;3.50;2.50;;;17.80;99.90;;;;;;5110479;28;20551;-66
2021/10/05 11:10:06;;;;;;;3.70;2.87;;;17.70;99.90;;;;;;5110086;28;20460;-66
2021/10/05 11:12:33;;;;;;;4.50;3.00;;;17.50;99.90;;;;;;5109118;28;21018;-66
2021/10/05 11:15:00;;;;;;;3.27;2.70;;;17.30;99.90;;;;;;5109639;28;20441;-66
2021/10/05 11:17:34;;;;;;;4.77;2.70;;;17.30;99.90;;;;;;5109971;28;20465;-67
2021/10/05 11:20:06;;;;;;;3.50;2.63;;;17.40;99.90;;;;;;5109847;28;20449;-66
2021/10/05 11:22:33;;;;;;;3.50;2.47;;;17.30;99.90;;;;;;5109500;28;20456;-66
2021/10/05 11:25:00;;;;;;;4.30;3.40;;;17.10;99.90;;;;;;5109682;28;20441;-66
2021/10/05 11:27:29;;;;;;;3.00;2.13;;;17.00;99.90;;;;;;5109788;28;20457;-66
2021/10/05 11:30:01;;;;;;;4.83;3.03;;;17.00;99.90;;;;;;5109783;28;20494;-64
2021/10/05 11:32:30;;;;;;;4.10;2.60;;;17.10;99.90;;;;;;5108903;28;20936;-66
2021/10/05 11:34:57;;;;;;;3.00;2.60;;;17.20;99.90;;;;;;5109486;28;20529;-65
2021/10/05 11:37:25;;;;;;;4.70;2.33;;;17.30;99.90;;;;;;5110137;28;20552;-65
2021/10/05 11:39:53;;;;;;;3.60;2.50;;;17.30;99.90;;;;;;5110046;28;20824;-65
2021/10/05 11:42:22;;;;;;;3.40;2.40;;;17.50;99.90;;;;;;5109072;28;20825;-65
2021/10/05 11:44:51;;;;;;;4.03;2.60;;;17.80;99.90;;;;;;5109580;28;20524;-66
2021/10/05 11:47:20;;;;;;;2.90;2.27;;;18.20;99.90;;;;;;5109795;28;20931;-66
2021/10/05 11:49:49;;;;;;;3.33;2.03;;;18.50;99.90;;;;;;5110222;28;20449;-66
2021/10/05 11:52:17;;;;;;;6.83;2.50;;;18.60;99.90;;;;;;5109280;28;20443;-66
2021/10/05 11:54:45;;;;;;;2.90;1.90;;;18.40;99.90;;;;;;5109666;28;20452;-67
2021/10/05 11:57:15;;;;;;;3.67;2.10;;;18.40;99.90;;;;;;5109858;28;20529;-66
2021/10/05 11:59:43;;;;;;;3.10;2.13;;;18.60;99.90;;;;;;5109786;28;20449;-66
2021/10/05 12:02:12;;;;;;;3.20;2.10;;;18.90;99.90;;;;;;5109206;28;20443;-66
2021/10/05 12:04:41;;;;;;;3.70;1.73;;;18.70;99.90;;;;;;5109440;28;20980;-67
2021/10/05 12:07:11;;;;;;;3.40;2.07;;;18.60;99.90;;;;;;5109861;28;20544;-68
2021/10/05 12:09:40;;;;;;;4.20;1.70;;;18.60;99.90;;;;;;5109585;28;20978;-68
2021/10/05 12:12:10;;;;;;;3.00;2.00;;;18.60;99.90;;;;;;5108700;28;21010;-66
2021/10/05 12:14:39;;;;;;;2.50;1.23;;;18.60;99.90;;;;;;5109487;28;20817;-68
2021/10/05 12:17:10;;;;;;;3.37;1.50;;;18.60;99.90;;;;;;5111236;28;21247;-67
2021/10/05 12:19:39;;;;;;;2.53;1.40;;;18.60;99.90;;;;;;5113309;28;20824;-67
2021/10/05 12:22:07;;;;;;;2.23;1.30;;;18.50;99.90;;;;;;5112466;28;20441;-67
2021/10/05 12:24:48;;;;;;;2.43;1.50;;;18.50;99.90;;;;;;5112817;28;20444;-68
2021/10/05 12:27:18;;;;;;;2.40;1.13;;;18.80;99.90;;;;;;5113186;28;20988;-67
2021/10/05 12:29:51;;;;;;;2.23;1.20;;;19.00;99.90;;;;;;5113247;28;20478;-67
2021/10/05 12:32:18;;;;;;;2.97;1.53;;;18.90;99.90;;;;;;5110225;28;20528;-66
2021/10/05 12:34:51;;;;;;;3.23;1.43;;;18.90;99.90;;;;;;5112469;28;20481;-67
2021/10/05 12:37:20;;;;;;;2.30;1.10;;;18.80;99.90;;;;;;5112845;28;20576;-66